createdAt,value
2023-03-05T00:00:48.207Z,100917.06
2023-03-05T00:03:14.811Z,100876.47
2023-03-05T00:05:41.375Z,100930.63
2023-03-05T00:08:08.060Z,100875.22
2023-03-05T00:10:37.002Z,100920.09
2023-03-05T00:13:03.544Z,100850.50
2023-03-05T00:15:30.353Z,100857.72
2023-03-05T00:18:00.253Z,100842.63
2023-03-05T00:20:27.144Z,100865.84
2023-03-05T00:23:02.690Z,100833.78
2023-03-05T00:25:29.777Z,100852.75
2023-03-05T00:27:56.270Z,100817.19
2023-03-05T00:30:22.731Z,100876.84
2023-03-05T00:32:49.297Z,100833.91
2023-03-05T00:35:15.769Z,100853.09
2023-03-05T00:37:42.251Z,100866.59
2023-03-05T00:40:18.298Z,100883.25
2023-03-05T00:42:58.052Z,100817.72
2023-03-05T00:45:25.194Z,100809.44
2023-03-05T00:47:51.701Z,100838.53
2023-03-05T00:50:18.261Z,100847.00
2023-03-05T00:52:44.810Z,100858.97
2023-03-05T00:55:11.526Z,100850.38
2023-03-05T00:57:38.528Z,100862.06
2023-03-05T01:00:11.362Z,100794.38
2023-03-05T01:02:38.164Z,100807.16
2023-03-05T01:05:05.031Z,100820.69
2023-03-05T01:07:31.683Z,100807.50
2023-03-05T01:09:58.329Z,100844.34
2023-03-05T01:12:26.027Z,100816.78
2023-03-05T01:14:52.601Z,100768.78
2023-03-05T01:17:19.094Z,100837.28
2023-03-05T01:19:45.569Z,100847.97
2023-03-05T01:22:12.059Z,100812.59
2023-03-05T01:24:38.512Z,100794.50
2023-03-05T01:27:05.152Z,100829.91
2023-03-05T01:29:31.592Z,100825.22
2023-03-05T01:31:58.111Z,100805.84
2023-03-05T01:34:24.529Z,100808.22
2023-03-05T01:36:51.454Z,100808.16
2023-03-05T01:39:18.014Z,100777.22
2023-03-05T01:41:44.616Z,100776.78
2023-03-05T01:44:30.263Z,100823.16
2023-03-05T01:46:59.342Z,100801.78
2023-03-05T01:49:32.858Z,100747.41
2023-03-05T01:52:20.226Z,100808.66
2023-03-05T01:54:54.218Z,100796.81
2023-03-05T01:57:34.436Z,100784.84
2023-03-05T02:00:43.447Z,100809.78
2023-03-05T02:03:16.481Z,100764.94
2023-03-05T02:05:58.345Z,100788.47
2023-03-05T02:13:03.300Z,100799.13
2023-03-05T02:15:31.625Z,100776.13
2023-03-05T02:17:58.337Z,100754.53
2023-03-05T02:20:30.557Z,100752.69
2023-03-05T02:23:16.976Z,100723.19
2023-03-05T02:26:06.568Z,100739.41
2023-03-05T02:28:55.598Z,100717.03
2023-03-05T02:31:40.106Z,100717.53
2023-03-05T02:34:10.420Z,100773.19
2023-03-05T02:36:37.057Z,100723.06
2023-03-05T02:39:03.927Z,100781.03
2023-03-05T02:41:30.570Z,100778.59
2023-03-05T02:43:58.229Z,100774.06
2023-03-05T02:46:28.045Z,100711.66
2023-03-05T02:48:54.665Z,100712.44
2023-03-05T02:51:26.161Z,100747.69
2023-03-05T02:54:07.156Z,100711.28
2023-03-05T02:56:34.381Z,100725.16
2023-03-05T02:59:00.855Z,100735.44
2023-03-05T03:01:31.596Z,100703.56
2023-03-05T03:04:00.330Z,100681.59
2023-03-05T03:06:27.129Z,100697.75
2023-03-05T03:08:53.622Z,100705.63
2023-03-05T03:11:21.602Z,100729.44
2023-03-05T03:13:48.127Z,100733.00
2023-03-05T03:16:16.075Z,100738.25
2023-03-05T03:18:44.076Z,100736.06
2023-03-05T03:24:10.943Z,100692.94
2023-03-05T03:26:44.700Z,100689.66
2023-03-05T03:29:11.457Z,100663.66
2023-03-05T03:31:44.143Z,100707.88
2023-03-05T03:34:24.917Z,100654.00
2023-03-05T03:40:50.784Z,100672.44
2023-03-05T03:43:17.274Z,100716.88
2023-03-05T03:45:46.420Z,100705.41
2023-03-05T03:48:53.310Z,100707.56
2023-03-05T03:56:02.507Z,100696.06
2023-03-05T03:58:29.885Z,100690.28
2023-03-05T04:00:58.092Z,100635.97
2023-03-05T04:03:24.724Z,100663.19
2023-03-05T04:05:51.561Z,100699.38
2023-03-05T04:08:35.777Z,100625.84
2023-03-05T04:11:10.249Z,100669.06
2023-03-05T04:13:36.868Z,100618.03
2023-03-05T04:16:12.643Z,100681.22
2023-03-05T04:18:39.441Z,100668.75
2023-03-05T04:21:06.007Z,100631.66
2023-03-05T04:23:32.763Z,100668.16
2023-03-05T04:25:59.591Z,100650.91
2023-03-05T04:31:27.793Z,100652.56
2023-03-05T04:38:38.418Z,100672.28
2023-03-05T04:41:05.217Z,100631.38
2023-03-05T04:43:37.809Z,100642.16
2023-03-05T04:46:05.078Z,100605.22
2023-03-05T04:48:34.429Z,100610.25
2023-03-05T04:51:17.963Z,100660.75
2023-03-05T04:54:26.259Z,100592.72
2023-03-05T04:56:57.576Z,100598.38
2023-03-05T04:59:28.847Z,100603.53
2023-03-05T05:02:01.464Z,100592.13
2023-03-05T05:04:53.272Z,100587.19
2023-03-05T05:07:22.563Z,100581.50
2023-03-05T05:09:55.175Z,100651.59
2023-03-05T05:15:37.887Z,100613.63
2023-03-05T05:18:08.495Z,100622.94
2023-03-05T05:24:43.889Z,100583.34
2023-03-05T05:27:13.699Z,100643.19
2023-03-05T05:30:10.735Z,100583.50
2023-03-05T05:32:57.905Z,100578.63
2023-03-05T05:40:08.530Z,100644.31
2023-03-05T05:42:35.878Z,100644.97
2023-03-05T05:45:12.715Z,100590.97
2023-03-05T05:47:39.555Z,100621.16
2023-03-05T05:50:17.363Z,100591.94
2023-03-05T05:52:51.264Z,100598.88
2023-03-05T05:55:18.398Z,100623.00
2023-03-05T05:57:45.032Z,100608.81
2023-03-05T06:00:12.921Z,100645.00
2023-03-05T06:02:46.455Z,100631.03
2023-03-05T06:05:24.148Z,100594.50
2023-03-05T06:11:21.362Z,100591.25
2023-03-05T06:20:39.674Z,100640.66
2023-03-05T06:23:08.915Z,100621.69
2023-03-05T06:30:13.942Z,100637.38
2023-03-05T06:32:40.795Z,100607.78
2023-03-05T06:35:08.028Z,100595.66
2023-03-05T06:37:34.620Z,100583.69
2023-03-05T06:40:01.224Z,100636.44
2023-03-05T06:45:47.165Z,100596.56
2023-03-05T06:48:15.653Z,100589.84
2023-03-05T06:50:53.128Z,100583.41
2023-03-05T07:01:15.033Z,100591.53
2023-03-05T07:07:41.970Z,100602.91
2023-03-05T07:10:15.971Z,100607.81
2023-03-05T07:21:03.580Z,100631.84
2023-03-05T07:49:22.383Z,100603.88
2023-03-05T07:51:51.623Z,100626.09
2023-03-05T07:54:18.235Z,100640.72
2023-03-05T07:56:44.907Z,100658.44
2023-03-05T08:02:33.528Z,100655.28
2023-03-05T08:08:16.714Z,100603.53
2023-03-05T08:10:53.196Z,100603.41
2023-03-05T08:25:33.737Z,100585.72
2023-03-05T08:28:09.393Z,100606.31
2023-03-05T08:38:26.933Z,100625.09
2023-03-05T08:54:11.920Z,100611.13
2023-03-05T08:56:38.463Z,100570.16
2023-03-05T08:59:05.787Z,100587.09
2023-03-05T09:05:14.734Z,100557.13
2023-03-05T09:07:41.829Z,100554.88
2023-03-05T09:22:33.896Z,100591.59
2023-03-05T09:32:12.795Z,100554.72
2023-03-05T09:34:42.586Z,100567.28
2023-03-05T09:37:10.940Z,100535.56
2023-03-05T09:39:40.516Z,100524.66
2023-03-05T09:42:13.145Z,100579.66
2023-03-05T09:44:58.337Z,100578.66
2023-03-05T09:47:30.905Z,100562.53
2023-03-05T09:50:06.376Z,100576.03
2023-03-05T09:53:12.307Z,100583.81
2023-03-05T09:59:25.154Z,100574.16
2023-03-05T10:01:53.674Z,100518.34
2023-03-05T10:04:40.428Z,100522.38
2023-03-05T10:07:14.780Z,100569.56
2023-03-05T10:17:46.296Z,100542.09
2023-03-05T10:20:41.792Z,100577.22
2023-03-05T10:23:08.164Z,100564.09
2023-03-05T10:26:08.788Z,100560.94
2023-03-05T10:32:50.988Z,100555.00
2023-03-05T10:35:41.097Z,100525.09
2023-03-05T10:38:32.258Z,100527.63
2023-03-05T10:44:47.738Z,100500.28
2023-03-05T10:47:30.788Z,100502.59
2023-03-05T10:49:59.412Z,100513.22
2023-03-05T10:52:48.195Z,100480.03
2023-03-05T11:02:09.238Z,100531.28
2023-03-05T11:04:41.392Z,100514.56
2023-03-05T11:07:32.671Z,100471.66
2023-03-05T11:10:16.851Z,100524.00
2023-03-05T11:12:47.811Z,100507.19
2023-03-05T11:15:14.630Z,100509.91
2023-03-05T11:17:44.884Z,100500.75
2023-03-05T11:20:30.058Z,100487.56
2023-03-05T11:23:06.027Z,100534.34
2023-03-05T11:26:05.766Z,100511.78
2023-03-05T11:28:51.987Z,100522.66
2023-03-05T11:31:31.202Z,100499.91
2023-03-05T11:34:53.063Z,100503.06
2023-03-05T11:37:46.203Z,100506.81
2023-03-05T11:40:30.293Z,100501.97
2023-03-05T11:43:00.717Z,100454.63
2023-03-05T11:45:37.363Z,100448.66
2023-03-05T11:48:37.017Z,100434.44
2023-03-05T11:51:19.644Z,100451.53
2023-03-05T11:53:55.775Z,100435.00
2023-03-05T11:56:34.566Z,100449.41
2023-03-05T11:59:29.826Z,100472.50
2023-03-05T12:01:57.839Z,100438.03
2023-03-05T12:04:24.672Z,100457.09
2023-03-05T12:06:55.114Z,100460.22
2023-03-05T12:09:27.829Z,100454.94
2023-03-05T12:12:05.135Z,100450.56
2023-03-05T12:15:01.116Z,100465.13
2023-03-05T12:18:17.805Z,100460.59
2023-03-05T12:20:55.711Z,100455.72
2023-03-05T12:23:23.234Z,100433.56
2023-03-05T12:25:57.183Z,100458.84
2023-03-05T12:28:36.769Z,100459.50
2023-03-05T12:31:25.756Z,100427.91
2023-03-05T12:33:52.416Z,100430.06
2023-03-05T12:36:21.837Z,100439.56
2023-03-05T12:38:52.488Z,100418.91
2023-03-05T12:41:30.543Z,100442.94
2023-03-05T12:44:07.282Z,100439.09
2023-03-05T12:46:39.097Z,100414.94
2023-03-05T12:49:20.754Z,100415.00
2023-03-05T12:51:50.143Z,100400.13
2023-03-05T12:54:27.085Z,100428.47
2023-03-05T12:56:56.045Z,100389.69
2023-03-05T12:59:27.952Z,100402.44
2023-03-05T13:02:03.078Z,100387.59
2023-03-05T13:04:32.400Z,100414.91
2023-03-05T13:07:07.613Z,100415.63
2023-03-05T13:09:36.742Z,100365.84
2023-03-05T13:12:11.676Z,100405.31
2023-03-05T13:14:42.504Z,100428.69
2023-03-05T13:17:47.275Z,100408.81
2023-03-05T13:20:38.647Z,100369.59
2023-03-05T13:23:08.029Z,100399.00
2023-03-05T13:25:34.706Z,100366.03
2023-03-05T13:28:04.914Z,100399.84
2023-03-05T13:30:33.613Z,100385.34
2023-03-05T13:33:04.016Z,100381.75
2023-03-05T13:35:34.968Z,100383.78
2023-03-05T13:38:40.885Z,100377.09
2023-03-05T13:44:41.995Z,100362.44
2023-03-05T13:47:15.812Z,100415.09
2023-03-05T13:49:44.233Z,100383.25
2023-03-05T13:52:11.800Z,100374.09
2023-03-05T13:54:38.531Z,100353.81
2023-03-05T13:57:06.862Z,100410.09
2023-03-05T13:59:39.138Z,100406.34
2023-03-05T14:02:20.736Z,100389.56
2023-03-05T14:04:48.134Z,100354.13
2023-03-05T14:07:20.882Z,100397.47
2023-03-05T14:09:50.053Z,100391.53
2023-03-05T14:12:30.368Z,100380.91
2023-03-05T14:14:59.418Z,100390.16
2023-03-05T14:17:44.898Z,100351.03
2023-03-05T14:20:11.253Z,100391.81
2023-03-05T14:22:40.310Z,100389.06
2023-03-05T14:25:25.556Z,100390.22
2023-03-05T14:27:52.198Z,100378.56
2023-03-05T14:30:21.006Z,100392.97
2023-03-05T14:32:48.678Z,100371.00
2023-03-05T14:35:26.822Z,100378.44
2023-03-05T14:37:56.835Z,100380.00
2023-03-05T14:40:33.016Z,100367.22
2023-03-05T14:43:06.465Z,100355.19
2023-03-05T14:45:36.253Z,100351.78
2023-03-05T14:48:08.147Z,100374.38
2023-03-05T14:50:56.465Z,100375.88
2023-03-05T14:53:28.010Z,100332.75
2023-03-05T14:55:56.893Z,100346.47
2023-03-05T14:58:27.537Z,100339.97
2023-03-05T15:00:55.567Z,100342.06
2023-03-05T15:03:22.772Z,100357.69
2023-03-05T15:05:52.499Z,100369.25
2023-03-05T15:08:32.269Z,100358.25
2023-03-05T15:10:59.834Z,100358.72
2023-03-05T15:13:26.724Z,100345.75
2023-03-05T15:15:53.862Z,100355.69
2023-03-05T15:18:22.433Z,100336.69
2023-03-05T15:20:49.481Z,100348.72
2023-03-05T15:23:16.183Z,100319.41
2023-03-05T15:25:42.779Z,100356.59
2023-03-05T15:28:09.314Z,100311.41
2023-03-05T15:30:39.544Z,100343.00
2023-03-05T15:33:09.640Z,100351.84
2023-03-05T15:35:36.367Z,100341.78
2023-03-05T15:38:03.225Z,100340.47
2023-03-05T15:40:29.994Z,100354.28
2023-03-05T15:42:57.742Z,100302.88
2023-03-05T15:45:24.925Z,100306.31
2023-03-05T15:47:52.730Z,100335.31
2023-03-05T15:50:21.320Z,100323.06
2023-03-05T15:52:48.367Z,100277.03
2023-03-05T15:55:14.904Z,100307.97
2023-03-05T15:57:47.570Z,100309.81
2023-03-05T16:00:16.376Z,100286.81
2023-03-05T16:02:44.562Z,100318.88
2023-03-05T16:05:11.307Z,100290.22
2023-03-05T16:07:39.163Z,100325.13
2023-03-05T16:10:06.315Z,100323.78
2023-03-05T16:12:43.090Z,100314.47
2023-03-05T16:15:16.124Z,100315.25
2023-03-05T16:17:45.466Z,100264.06
2023-03-05T16:20:12.659Z,100289.88
2023-03-05T16:22:39.246Z,100293.97
2023-03-05T16:25:06.331Z,100300.25
2023-03-05T16:27:32.820Z,100268.88
2023-03-05T16:29:59.389Z,100291.09
2023-03-05T16:32:25.950Z,100314.91
2023-03-05T16:34:52.484Z,100263.38
2023-03-05T16:37:21.321Z,100313.69
2023-03-05T16:39:58.178Z,100326.25
2023-03-05T16:42:24.614Z,100307.19
2023-03-05T16:44:56.367Z,100319.50
2023-03-05T16:47:25.931Z,100304.75
2023-03-05T16:49:52.504Z,100308.25
2023-03-05T16:52:19.928Z,100278.06
2023-03-05T16:54:47.591Z,100304.03
2023-03-05T16:57:17.427Z,100331.69
2023-03-05T16:59:44.657Z,100306.00
2023-03-05T17:02:13.224Z,100325.66
2023-03-05T17:04:39.899Z,100330.28
2023-03-05T17:07:06.931Z,100342.75
2023-03-05T17:09:33.791Z,100301.59
2023-03-05T17:12:00.522Z,100332.09
2023-03-05T17:14:27.138Z,100330.50
2023-03-05T17:16:58.605Z,100338.03
2023-03-05T17:19:25.089Z,100301.19
2023-03-05T17:21:52.334Z,100318.72
2023-03-05T17:24:22.261Z,100325.91
2023-03-05T17:26:49.768Z,100315.72
2023-03-05T17:29:16.527Z,100263.03
2023-03-05T17:31:43.343Z,100326.16
2023-03-05T17:34:10.180Z,100294.53
2023-03-05T17:36:42.809Z,100296.88
2023-03-05T17:39:09.282Z,100304.28
2023-03-05T17:41:35.844Z,100303.13
2023-03-05T17:44:02.286Z,100318.38
2023-03-05T17:46:28.914Z,100287.59
2023-03-05T17:48:55.338Z,100324.38
2023-03-05T17:51:21.836Z,100313.00
2023-03-05T17:53:48.261Z,100286.69
2023-03-05T17:56:22.070Z,100296.00
2023-03-05T17:58:49.639Z,100308.22
2023-03-05T18:01:29.368Z,100240.81
2023-03-05T18:03:56.983Z,100284.84
2023-03-05T18:06:23.666Z,100293.63
2023-03-05T18:12:23.665Z,100256.22
2023-03-05T18:14:50.273Z,100302.00
2023-03-05T18:17:19.533Z,100269.63
2023-03-05T18:19:46.219Z,100297.28
2023-03-05T18:22:14.806Z,100313.50
2023-03-05T18:24:41.246Z,100302.69
2023-03-05T18:27:20.818Z,100315.31
2023-03-05T18:29:47.346Z,100250.97
2023-03-05T18:32:16.113Z,100313.00
2023-03-05T18:34:42.584Z,100269.94
2023-03-05T18:37:09.091Z,100272.31
2023-03-05T18:39:36.727Z,100279.44
2023-03-05T18:42:03.471Z,100244.59
2023-03-05T18:44:30.051Z,100291.00
2023-03-05T18:46:58.668Z,100302.69
2023-03-05T18:49:29.829Z,100244.81
2023-03-05T18:51:59.646Z,100261.91
2023-03-05T18:54:26.307Z,100269.53
2023-03-05T18:56:52.761Z,100300.38
2023-03-05T18:59:19.224Z,100301.63
2023-03-05T19:01:45.759Z,100233.56
2023-03-05T19:04:12.330Z,100277.44
2023-03-05T19:06:38.812Z,100294.16
2023-03-05T19:09:12.129Z,100260.34
2023-03-05T19:11:38.606Z,100259.25
2023-03-05T19:14:05.121Z,100289.81
2023-03-05T19:16:38.358Z,100271.00
2023-03-05T19:19:20.552Z,100282.16
2023-03-05T19:22:04.903Z,100291.22
2023-03-05T19:24:31.663Z,100245.19
2023-03-05T19:27:01.068Z,100265.97
2023-03-05T19:29:33.149Z,100262.41
2023-03-05T19:31:59.749Z,100276.81
2023-03-05T19:34:28.614Z,100259.84
2023-03-05T19:36:55.100Z,100266.09
2023-03-05T19:39:22.729Z,100257.06
2023-03-05T19:41:49.306Z,100245.53
2023-03-05T19:44:16.241Z,100223.06
2023-03-05T19:46:43.609Z,100233.25
2023-03-05T19:49:10.727Z,100239.03
2023-03-05T19:51:37.255Z,100206.78
2023-03-05T19:54:06.290Z,100258.31
2023-03-05T19:56:32.886Z,100244.59
2023-03-05T19:58:59.237Z,100249.34
2023-03-05T20:01:41.554Z,100191.47
2023-03-05T20:04:11.745Z,100257.53
2023-03-05T20:06:38.392Z,100224.28
2023-03-05T20:09:07.536Z,100250.25
2023-03-05T20:11:36.002Z,100246.84
2023-03-05T20:14:02.573Z,100197.63
2023-03-05T20:16:32.884Z,100224.53
2023-03-05T20:18:59.822Z,100234.88
2023-03-05T20:21:36.242Z,100207.63
2023-03-05T20:24:08.517Z,100235.06
2023-03-05T20:26:38.422Z,100193.13
2023-03-05T21:13:25.585Z,100202.78
2023-03-05T21:15:52.641Z,100193.19
2023-03-05T21:18:28.254Z,100184.13
2023-03-05T21:20:54.903Z,100170.59
2023-03-05T21:23:21.326Z,100179.53
2023-03-05T21:25:47.999Z,100127.28
2023-03-05T21:28:18.713Z,100182.06
2023-03-05T21:30:52.004Z,100150.22
2023-03-05T21:33:22.302Z,100125.56
2023-03-05T21:35:52.624Z,100173.09
2023-03-05T21:38:39.440Z,100132.00
2023-03-05T21:41:06.373Z,100152.44
2023-03-05T21:43:42.761Z,100166.16
2023-03-05T21:46:11.055Z,100131.75
2023-03-05T21:48:38.272Z,100121.34
2023-03-05T21:51:08.870Z,100135.31
2023-03-05T21:53:35.766Z,100147.03
2023-03-05T21:56:21.027Z,100102.28
2023-03-05T21:58:47.588Z,100113.59
2023-03-05T22:01:19.449Z,100106.41
2023-03-05T22:03:46.144Z,100132.50
2023-03-05T22:06:13.205Z,100139.34
2023-03-05T22:08:39.695Z,100137.34
2023-03-05T22:11:10.805Z,100127.63
2023-03-05T22:13:38.113Z,100091.25
2023-03-05T22:16:05.528Z,100109.56
2023-03-05T22:18:33.377Z,100118.78
2023-03-05T22:21:00.154Z,100112.13
2023-03-05T22:23:46.336Z,100122.91
2023-03-05T22:26:12.829Z,100106.66
2023-03-05T22:28:39.462Z,100063.47
2023-03-05T22:31:06.212Z,100100.81
2023-03-05T22:33:32.734Z,100072.19
2023-03-05T22:35:59.332Z,100062.94
2023-03-05T22:38:25.908Z,100096.09
2023-03-05T22:40:53.063Z,100089.34
2023-03-05T22:43:20.191Z,100072.09
2023-03-05T22:45:46.743Z,100053.97
2023-03-05T22:48:13.272Z,100081.09
2023-03-05T22:50:41.071Z,100043.41
2023-03-05T22:53:08.156Z,100071.25
2023-03-05T22:55:34.782Z,100074.09
2023-03-05T22:58:01.241Z,100066.25
2023-03-05T23:00:27.781Z,100037.63
2023-03-05T23:02:54.596Z,100068.38
2023-03-05T23:05:21.557Z,100023.44
2023-03-05T23:07:48.148Z,100026.44
2023-03-05T23:10:19.622Z,100049.97
2023-03-05T23:12:53.400Z,100008.94
2023-03-05T23:15:30.103Z,100025.00
2023-03-05T23:17:57.204Z,100004.25
2023-03-05T23:20:27.239Z,100003.75
2023-03-05T23:22:56.050Z,100012.50
2023-03-05T23:25:29.524Z,100031.59
2023-03-05T23:27:58.119Z,100040.28
2023-03-05T23:30:25.972Z,100039.72
2023-03-05T23:32:58.210Z,100013.63
2023-03-05T23:35:33.916Z,100034.31
2023-03-05T23:38:05.026Z,100012.09
2023-03-05T23:40:37.252Z,99995.03
2023-03-05T23:43:04.676Z,99999.63
2023-03-05T23:45:32.470Z,100013.75
2023-03-05T23:47:59.378Z,100025.56
2023-03-05T23:50:34.963Z,100007.84
2023-03-05T23:53:02.462Z,99998.84
2023-03-05T23:55:35.429Z,99988.56
2023-03-05T23:58:09.276Z,99967.38
